.
WxDataArchive / Data Records for 2014-08-04
2014-08-03 August 2014 2014-08-05

Data Records for Monday, 04 August 2014

Time	Temp	Chill	HIndex	Humid	Dewpt	 Wind 	HiWind	WindDir	Rain 	Barom
-----	----	-----	------	-----	-----	------	------	-------	-----	-----
00:00	65.8	65.8	65.8	81	59.8	0	0	---	0.00	30.058 
00:05	65.6	65.6	65.6	81	59.6	0	0	---	0.00	30.058 
00:10	65.5	65.5	65.5	81	59.5	0	0	---	0.00	30.058 
00:15	65.3	65.3	65.3	82	59.7	0	0	---	0.00	30.057 
00:20	65.2	65.2	65.2	82	59.6	0	0	---	0.00	30.057 
00:25	65.2	65.2	65.2	82	59.6	0	0	---	0.00	30.057 
00:30	65.0	65.0	65.0	83	59.7	0	0	---	0.00	30.058 
00:35	64.8	64.8	64.8	84	59.8	0	0	---	0.00	30.058 
00:40	64.8	64.8	64.8	84	59.8	0	0	---	0.00	30.058 
00:45	64.7	64.7	64.7	84	59.7	0	0	---	0.00	30.063 
00:50	64.5	64.5	64.5	84	59.6	0	0	---	0.00	30.063 
00:55	64.5	64.5	64.5	84	59.6	0	0	---	0.00	30.063 
01:00	64.3	64.3	64.3	84	59.4	0	0	---	0.00	30.064 
01:05	64.3	64.3	64.3	84	59.4	0	0	---	0.00	30.064 
01:10	64.2	64.2	64.2	84	59.3	0	0	---	0.00	30.064 
01:15	64.2	64.2	64.2	85	59.6	0	0	---	0.00	30.064 
01:20	64.0	64.0	64.0	85	59.4	0	0	---	0.00	30.064 
01:25	63.9	63.9	63.9	85	59.3	0	0	---	0.00	30.064 
01:30	63.9	63.9	63.9	86	59.6	0	0	---	0.00	30.064 
01:35	63.9	63.9	63.9	86	59.6	0	0	---	0.00	30.064 
01:40	63.7	63.7	63.7	86	59.4	0	0	---	0.00	30.064 
01:45	63.5	63.5	63.5	87	59.6	0	0	---	0.00	30.065 
01:50	63.5	63.5	63.5	87	59.6	0	0	---	0.00	30.065 
01:55	63.4	63.4	63.4	87	59.5	0	0	---	0.00	30.065 
02:00	63.2	63.2	63.2	87	59.3	0	0	---	0.00	30.064 
02:05	63.2	63.2	63.2	88	59.6	0	0	---	0.00	30.064 
02:10	63.1	63.1	63.1	88	59.5	0	0	---	0.00	30.064 
02:15	63.1	63.1	63.1	88	59.5	0	0	---	0.00	30.062 
02:20	63.1	63.1	63.1	88	59.5	0	0	---	0.00	30.062 
02:25	63.1	63.1	63.1	88	59.5	0	0	---	0.00	30.062 
02:30	62.9	62.9	62.9	88	59.3	0	0	---	0.00	30.060 
02:35	62.9	62.9	62.9	89	59.6	0	0	---	0.00	30.060 
02:40	62.9	62.9	62.9	89	59.6	0	0	---	0.00	30.060 
02:45	62.9	62.9	62.9	89	59.6	0	0	---	0.00	30.058 
02:50	62.9	62.9	62.9	89	59.6	0	0	---	0.00	30.058 
02:55	62.9	62.9	62.9	89	59.6	0	0	---	0.00	30.058 
03:00	62.9	62.9	62.9	90	59.9	0	0	---	0.00	30.061 
03:05	62.9	62.9	62.9	90	59.9	0	0	---	0.00	30.061 
03:10	63.1	63.1	63.1	90	60.1	0	1	292	0.00	30.061 
03:15	63.2	63.2	63.2	90	60.2	0	2	292	0.00	30.051 
03:20	63.2	63.2	63.2	90	60.2	0	0	---	0.00	30.051 
03:25	63.2	63.2	63.2	90	60.2	0	0	---	0.00	30.051 
03:30	63.2	63.2	63.2	90	60.2	0	0	---	0.00	30.047 
03:35	63.2	63.2	63.2	90	60.2	0	0	---	0.00	30.047 
03:40	63.1	63.1	63.1	90	60.1	0	0	---	0.00	30.047 
03:45	63.1	63.1	63.1	90	60.1	0	0	---	0.00	30.047 
03:50	62.9	62.9	62.9	90	59.9	0	0	---	0.00	30.047 
03:55	62.9	62.9	62.9	90	59.9	0	0	---	0.00	30.047 
04:00	62.7	62.7	62.7	90	59.7	0	0	---	0.00	30.050 
04:05	62.7	62.7	62.7	91	60.0	0	0	---	0.00	30.050 
04:10	62.7	62.7	62.7	91	60.0	0	0	---	0.00	30.050 
04:15	62.6	62.6	62.6	91	59.9	0	0	---	0.00	30.052 
04:20	62.6	62.6	62.6	91	59.9	0	0	---	0.00	30.052 
04:25	62.4	62.4	62.4	91	59.7	0	0	---	0.00	30.052 
04:30	62.4	62.4	62.4	91	59.7	0	0	---	0.00	30.055 
04:35	62.4	62.4	62.4	91	59.7	0	0	---	0.00	30.055 
04:40	62.3	62.3	62.3	91	59.6	0	0	---	0.00	30.055 
04:45	62.3	62.3	62.3	91	59.6	0	0	---	0.00	30.058 
04:50	62.3	62.3	62.3	91	59.6	0	0	---	0.00	30.058 
04:55	62.3	62.3	62.3	91	59.6	0	0	---	0.00	30.058 
05:00	62.3	62.3	62.3	92	59.9	0	0	---	0.00	30.053 
05:05	62.1	62.1	62.1	92	59.7	0	0	---	0.00	30.053 
05:10	62.1	62.1	62.1	92	59.7	0	0	---	0.00	30.053 
05:15	62.0	62.0	62.0	92	59.6	0	0	---	0.00	30.050 
05:20	62.0	62.0	62.0	92	59.6	0	0	---	0.00	30.050 
05:25	62.0	62.0	62.0	92	59.6	0	0	---	0.00	30.050 
05:30	62.0	62.0	62.0	92	59.6	0	0	---	0.00	30.049 
05:35	61.8	61.8	61.8	92	59.4	0	0	---	0.00	30.049 
05:40	61.6	61.6	61.6	92	59.2	0	0	---	0.00	30.049 
05:45	61.6	61.6	61.6	92	59.2	0	0	---	0.00	30.051 
05:50	61.6	61.6	61.6	92	59.2	0	0	---	0.00	30.051 
05:55	61.5	61.5	61.5	92	59.2	0	0	---	0.00	30.051 
06:00	61.5	61.5	61.5	92	59.2	0	0	---	0.00	30.051 
06:05	61.3	61.3	61.3	92	59.0	0	0	---	0.00	30.051 
06:10	61.3	61.3	61.3	92	59.0	0	0	---	0.00	30.051 
06:15	61.3	61.3	61.3	92	59.0	0	0	---	0.00	30.056 
06:20	61.2	61.2	61.2	93	59.2	0	0	---	0.00	30.056 
06:25	61.2	61.2	61.2	93	59.2	0	0	---	0.00	30.056 
06:30	61.2	61.2	61.2	93	59.2	0	0	---	0.00	30.055 
06:35	61.0	61.0	61.0	93	59.0	0	0	---	0.00	30.055 
06:40	61.0	61.0	61.0	93	59.0	0	0	---	0.00	30.055 
06:45	61.0	61.0	61.0	93	59.0	0	0	---	0.00	30.063 
06:50	61.0	61.0	61.0	93	59.0	0	0	---	0.00	30.063 
06:55	61.0	61.0	61.0	93	59.0	0	0	---	0.00	30.063 
07:00	61.0	61.0	61.0	93	59.0	0	0	---	0.00	30.065 
07:05	61.0	61.0	61.0	93	59.0	0	0	---	0.00	30.065 
07:10	61.2	61.2	61.2	93	59.2	0	0	---	0.00	30.065 
07:15	61.3	61.3	61.3	93	59.3	0	0	---	0.00	30.071 
07:20	61.5	61.5	61.5	94	59.8	0	0	---	0.00	30.071 
07:25	61.8	61.8	61.8	94	60.1	0	0	---	0.00	30.071 
07:30	62.0	62.0	62.0	94	60.2	0	0	---	0.00	30.074 
07:35	62.1	62.1	62.1	94	60.3	0	0	---	0.00	30.074 
07:40	62.4	62.4	62.4	94	60.6	0	0	---	0.00	30.074 
07:45	62.6	62.6	62.6	94	60.8	0	0	---	0.00	30.076 
07:50	62.9	62.9	62.9	94	61.1	0	0	---	0.00	30.076 
07:55	63.5	63.5	63.5	94	61.7	0	0	---	0.00	30.076 
08:00	64.0	64.0	64.0	94	62.2	0	0	---	0.00	30.074 
08:05	64.8	64.8	64.8	94	63.0	0	0	---	0.00	30.074 
08:10	65.2	65.2	65.2	93	63.1	0	1	292	0.00	30.074 
08:15	65.5	65.5	65.5	93	63.4	0	0	---	0.00	30.078 
08:20	66.1	66.1	66.1	92	63.7	0	0	---	0.00	30.078 
08:25	66.6	66.6	66.6	91	63.9	0	0	---	0.00	30.078 
08:30	67.3	67.3	67.3	91	64.6	0	0	---	0.00	30.079 
08:35	67.9	67.9	67.9	89	64.5	0	0	---	0.00	30.079 
08:40	68.4	68.4	68.4	87	64.4	0	0	---	0.00	30.079 
08:45	68.9	68.9	68.9	85	64.2	0	1	292	0.00	30.082 
08:50	69.6	69.6	69.6	83	64.2	0	0	---	0.00	30.082 
08:55	70.4	70.4	70.4	82	64.6	0	0	---	0.00	30.082 
09:00	71.1	71.1	71.1	81	65.0	0	0	---	0.00	30.081 
09:05	71.6	71.6	71.6	80	65.1	0	0	---	0.00	30.081 
09:10	72.1	72.1	72.1	78	64.8	0	0	---	0.00	30.081 
09:15	72.7	72.7	72.7	75	64.3	0	1	292	0.00	30.091 
09:20	72.8	72.8	72.8	73	63.6	0	1	292	0.00	30.091 
09:25	73.0	73.0	73.0	73	63.8	0	2	292	0.00	30.091 
09:30	73.2	73.2	73.2	74	64.4	0	0	---	0.00	30.091 
09:35	73.7	73.7	73.7	73	64.5	0	1	292	0.00	30.091 
09:40	74.4	74.4	74.4	73	65.2	0	1	292	0.00	30.091 
09:45	74.7	74.7	74.7	72	65.1	0	1	292	0.00	30.087 
09:50	75.1	75.1	76.9	69	64.2	0	2	292	0.00	30.087 
09:55	75.1	75.1	76.9	69	64.2	0	2	292	0.00	30.087 
10:00	74.9	74.9	74.9	70	64.4	1	2	292	0.00	30.088 
10:05	74.9	74.9	74.9	70	64.4	1	2	292	0.00	30.088 
10:10	74.9	74.9	74.9	71	64.8	0	1	292	0.00	30.088 
10:15	75.1	75.1	76.8	70	64.6	0	3	292	0.00	30.089 
10:20	75.3	75.3	77.0	69	64.4	0	2	292	0.00	30.089 
10:25	75.3	75.3	77.0	70	64.8	0	1	292	0.00	30.089 
10:30	75.6	75.6	77.3	69	64.7	0	1	292	0.00	30.090 
10:35	76.1	76.1	77.8	70	65.6	0	0	---	0.00	30.090 
10:40	76.8	76.8	78.5	70	66.3	0	1	292	0.00	30.090 
10:45	77.4	77.4	79.2	67	65.6	0	0	---	0.00	30.088 
10:50	77.6	77.6	79.4	65	64.9	0	2	292	0.00	30.088 
10:55	77.6	77.6	79.4	65	64.9	0	1	292	0.00	30.088 
11:00	77.6	77.6	79.4	66	65.3	0	2	292	0.00	30.089 
11:05	77.9	77.9	79.8	66	65.6	0	2	292	0.00	30.089 
11:10	78.1	78.1	80.0	67	66.2	0	2	292	0.00	30.089 
11:15	78.5	78.5	80.5	66	66.2	0	2	292	0.00	30.092 
11:20	78.8	78.8	80.8	65	66.0	0	2	292	0.00	30.092 
11:25	78.8	78.8	80.7	63	65.1	1	2	292	0.00	30.092 
11:30	79.0	79.0	80.9	63	65.3	1	3	292	0.00	30.091 
11:35	79.2	79.2	81.1	62	65.0	1	3	292	0.00	30.091 
11:40	79.6	79.6	81.4	61	64.9	0	2	292	0.00	30.091 
11:45	80.3	80.3	82.2	60	65.1	0	2	338	0.00	30.088 
11:50	80.3	80.3	81.7	56	63.1	1	2	338	0.00	30.088 
11:55	80.1	80.1	81.7	58	64.0	1	3	338	0.00	30.088 
12:00	80.3	80.3	82.1	59	64.6	0	3	338	0.00	30.088 
12:05	80.3	80.3	81.9	58	64.2	1	3	338	0.00	30.088 
12:10	80.3	80.3	81.6	55	62.6	1	2	338	0.00	30.088 
12:15	80.7	80.7	82.3	57	64.0	1	3	338	0.00	30.086 
12:20	81.1	81.1	82.8	57	64.4	1	4	338	0.00	30.086 
12:25	81.1	81.1	82.3	54	62.9	1	3	338	0.00	30.086 
12:30	81.1	81.1	82.5	55	63.4	1	3	338	0.00	30.083 
12:35	81.6	81.6	82.9	54	63.3	0	2	338	0.00	30.083 
12:40	81.8	81.8	83.2	54	63.5	2	3	338	0.00	30.083 
12:45	81.8	81.8	82.8	52	62.4	1	3	338	0.00	30.078 
12:50	82.0	82.0	83.2	53	63.2	0	1	338	0.00	30.078 
12:55	82.2	82.2	83.6	54	63.9	1	3	338	0.00	30.078 
13:00	82.4	82.4	84.1	55	64.6	0	3	338	0.00	30.075 
13:05	82.4	82.4	83.7	53	63.5	1	3	315	0.00	30.075 
13:10	82.4	82.4	83.4	51	62.4	1	4	315	0.00	30.075 
13:15	82.6	82.6	83.4	50	62.0	1	3	315	0.00	30.074 
13:20	82.8	82.8	83.8	51	62.8	1	3	315	0.00	30.074 
13:25	83.0	83.0	84.1	51	63.0	0	2	315	0.00	30.074 
13:30	83.0	83.0	84.1	51	63.0	1	4	315	0.00	30.068 
13:35	83.0	83.0	83.2	46	60.1	1	4	315	0.00	30.068 
13:40	83.0	83.0	83.7	49	61.8	1	2	315	0.00	30.068 
13:45	83.0	83.0	83.7	49	61.8	0	4	315	0.00	30.062 
13:50	83.4	83.4	84.8	52	63.9	0	2	315	0.00	30.062 
13:55	83.6	83.6	84.1	47	61.2	0	2	315	0.00	30.062 
14:00	83.2	83.2	83.8	48	61.4	1	4	315	0.00	30.059 
14:05	82.8	82.8	83.7	50	62.2	1	3	315	0.00	30.059 
14:10	82.8	82.8	83.7	50	62.2	1	3	315	0.00	30.059 
14:15	82.8	82.8	83.3	48	61.1	1	4	315	0.00	30.056 
14:20	82.8	82.8	83.5	49	61.7	0	3	315	0.00	30.056 
14:25	82.8	82.8	83.0	46	59.9	1	4	315	0.00	30.056 
14:30	82.8	82.8	83.2	47	60.5	2	5	315	0.00	30.048 
14:35	83.2	83.2	84.1	50	62.6	1	3	270	0.00	30.048 
14:40	83.4	83.4	83.8	47	61.0	1	4	270	0.00	30.048 
14:45	83.6	83.6	84.4	49	62.4	1	4	292	0.00	30.044 
14:50	83.8	83.8	84.1	46	60.8	1	3	292	0.00	30.044 
14:55	83.8	83.8	84.1	46	60.8	1	3	292	0.00	30.044 
15:00	83.8	83.8	84.1	46	60.8	1	3	292	0.00	30.038 
15:05	84.1	84.1	84.4	46	61.1	1	3	292	0.00	30.038 
15:10	84.1	84.1	84.6	47	61.7	0	2	292	0.00	30.038 
15:15	83.6	83.6	83.9	46	60.6	1	4	292	0.00	30.032 
15:20	83.0	83.0	83.2	46	60.1	1	2	292	0.00	30.032 
15:25	82.6	82.6	83.3	49	61.5	1	2	292	0.00	30.032 
15:30	82.4	82.4	83.2	50	61.9	1	4	292	0.00	30.032 
15:35	82.2	82.2	83.0	50	61.7	1	3	292	0.00	30.032 
15:40	82.0	82.0	82.8	50	61.5	1	3	292	0.00	30.032 
15:45	81.8	81.8	82.6	50	61.3	1	3	292	0.00	30.031 
15:50	81.6	81.6	82.3	50	61.1	1	2	292	0.00	30.031 
15:55	81.6	81.6	82.3	50	61.1	1	3	292	0.00	30.031 
16:00	81.6	81.6	82.5	51	61.7	1	3	292	0.00	30.030 
16:05	81.6	81.6	82.1	48	60.0	1	4	292	0.00	30.030 
16:10	81.4	81.4	81.9	48	59.8	1	3	292	0.00	30.030 
16:15	81.4	81.4	82.0	49	60.4	1	2	292	0.00	30.025 
16:20	81.2	81.2	81.7	48	59.6	1	3	292	0.00	30.025 
16:25	81.2	81.2	81.9	50	60.8	0	2	292	0.00	30.025 
16:30	81.6	81.6	82.5	51	61.7	0	2	292	0.00	30.017 
16:35	81.8	81.8	82.6	50	61.3	1	2	292	0.00	30.017 
16:40	82.2	82.2	83.0	50	61.7	0	3	292	0.00	30.017 
16:45	82.6	82.6	83.4	50	62.0	0	1	292	0.00	30.015 
16:50	83.2	83.2	83.6	47	60.8	1	4	315	0.00	30.015 
16:55	83.8	83.8	84.7	49	62.6	0	3	315	0.00	30.015 
17:00	84.1	84.1	84.3	45	60.4	1	4	315	0.00	30.013 
17:05	83.4	83.4	83.7	46	60.4	1	3	292	0.00	30.013 
17:10	83.2	83.2	83.3	45	59.6	1	4	292	0.00	30.013 
17:15	83.8	83.8	84.1	46	60.8	1	4	292	0.00	30.012 
17:20	83.8	83.8	84.1	46	60.8	1	4	315	0.00	30.012 
17:25	84.1	84.1	84.4	46	61.1	1	3	90	0.00	30.012 
17:30	84.3	84.3	84.5	45	60.6	1	2	292	0.00	30.013 
17:35	84.5	84.5	84.3	43	59.5	0	3	292	0.00	30.013 
17:40	84.5	84.5	84.3	43	59.5	1	2	292	0.00	30.013 
17:45	84.0	84.0	84.1	45	60.3	0	2	292	0.00	30.013 
17:50	83.6	83.6	83.9	46	60.6	0	1	292	0.00	30.013 
17:55	83.6	83.6	84.2	48	61.8	0	2	292	0.00	30.013 
18:00	84.1	84.1	84.6	47	61.7	0	1	292	0.00	30.015 
18:05	84.3	84.3	84.7	46	61.2	0	1	292	0.00	30.015 
18:10	84.1	84.1	84.4	46	61.1	0	0	---	0.00	30.015 
18:15	83.8	83.8	84.3	47	61.4	0	1	338	0.00	30.016 
18:20	83.2	83.2	83.4	46	60.2	0	1	338	0.00	30.016 
18:25	83.0	83.0	83.5	48	61.3	0	0	---	0.00	30.016 
18:30	82.8	82.8	83.3	48	61.1	0	0	---	0.00	30.015 
18:35	82.8	82.8	83.7	50	62.2	0	1	338	0.00	30.015 
18:40	82.0	82.0	82.6	49	60.9	1	5	292	0.00	30.015 
18:45	79.9	79.9	81.1	54	61.7	3	10	90	0.00	30.031 
18:50	77.6	77.6	79.2	56	60.6	2	5	90	0.00	30.031 
18:55	76.1	76.1	78.1	58	60.2	1	3	112	0.00	30.031 
19:00	75.6	75.6	77.8	59	60.2	1	4	90	0.00	30.035 
19:05	75.1	75.1	77.6	54	57.3	0	2	90	0.00	30.035 
19:10	74.9	74.9	74.9	55	57.6	0	2	90	0.00	30.035 
19:15	75.3	75.3	77.7	54	57.5	0	2	90	0.00	30.030 
19:20	75.4	75.4	77.8	54	57.6	0	2	90	0.00	30.030 
19:25	75.8	75.8	78.0	53	57.4	1	3	90	0.00	30.030 
19:30	75.6	75.6	77.8	57	59.3	2	5	90	0.00	30.032 
19:35	75.3	75.3	77.7	56	58.5	0	2	90	0.00	30.032 
19:40	75.3	75.3	77.7	55	58.0	0	1	90	0.00	30.032 
19:45	75.3	75.3	77.7	56	58.5	0	1	90	0.00	30.034 
19:50	75.4	75.4	77.7	55	58.1	0	1	90	0.00	30.034 
19:55	75.6	75.6	77.8	56	58.8	0	1	90	0.00	30.034 
20:00	75.6	75.6	77.8	56	58.8	0	0	---	0.00	30.020 
20:05	75.6	75.6	77.8	56	58.8	0	0	---	0.00	30.020 
20:10	75.6	75.6	77.8	58	59.8	0	0	---	0.00	30.020 
20:15	75.6	75.6	77.8	59	60.2	0	0	---	0.00	30.015 
20:20	75.4	75.4	77.6	60	60.5	0	0	---	0.00	30.015 
20:25	75.3	75.3	77.6	59	60.0	0	0	---	0.00	30.015 
20:30	75.1	75.1	77.4	60	60.2	0	0	---	0.00	30.015 
20:35	74.9	74.9	74.9	60	60.1	0	0	---	0.00	30.015 
20:40	74.7	74.7	74.7	61	60.3	0	0	---	0.00	30.015 
20:45	74.6	74.6	74.6	62	60.7	0	0	---	0.00	30.013 
20:50	74.4	74.4	74.4	63	61.0	0	0	---	0.00	30.013 
20:55	74.0	74.0	74.0	65	61.5	0	0	---	0.00	30.013 
21:00	73.9	73.9	73.9	66	61.8	0	0	---	0.00	30.015 
21:05	73.5	73.5	73.5	67	61.9	0	0	---	0.00	30.015 
21:10	73.2	73.2	73.2	68	62.0	0	0	---	0.00	30.015 
21:15	72.8	72.8	72.8	68	61.6	0	0	---	0.00	30.012 
21:20	72.5	72.5	72.5	69	61.7	0	0	---	0.00	30.012 
21:25	72.3	72.3	72.3	71	62.4	0	0	---	0.00	30.012 
21:30	72.1	72.1	72.1	74	63.3	0	0	---	0.00	30.015 
21:35	72.0	72.0	72.0	75	63.6	0	0	---	0.00	30.015 
21:40	71.8	71.8	71.8	77	64.2	0	0	---	0.00	30.015 
21:45	71.5	71.5	71.5	77	63.9	0	0	---	0.00	30.023 
21:50	71.1	71.1	71.1	78	63.9	0	0	---	0.00	30.023 
21:55	70.9	70.9	70.9	78	63.7	0	0	---	0.00	30.023 
22:00	70.8	70.8	70.8	79	64.0	0	0	---	0.00	30.028 
22:05	70.4	70.4	70.4	79	63.6	0	0	---	0.00	30.028 
22:10	70.3	70.3	70.3	79	63.5	0	0	---	0.00	30.028 
22:15	70.1	70.1	70.1	80	63.6	0	0	---	0.00	30.030 
22:20	69.8	69.8	69.8	80	63.3	0	0	---	0.00	30.030 
22:25	69.6	69.6	69.6	81	63.5	0	0	---	0.00	30.030 
22:30	69.4	69.4	69.4	81	63.3	0	0	---	0.00	30.033 
22:35	69.3	69.3	69.3	81	63.2	0	0	---	0.00	30.033 
22:40	69.1	69.1	69.1	81	63.0	0	0	---	0.00	30.033 
22:45	68.9	68.9	68.9	81	62.8	0	0	---	0.00	30.029 
22:50	68.9	68.9	68.9	82	63.2	0	0	---	0.00	30.029 
22:55	68.8	68.8	68.8	82	63.1	0	0	---	0.00	30.029 
23:00	68.6	68.6	68.6	82	62.9	0	0	---	0.00	30.027 
23:05	68.4	68.4	68.4	83	63.0	0	0	---	0.00	30.027 
23:10	68.3	68.3	68.3	83	62.9	0	0	---	0.00	30.027 
23:15	68.1	68.1	68.1	84	63.1	0	0	---	0.00	30.027 
23:20	68.1	68.1	68.1	84	63.1	0	0	---	0.00	30.027 
23:25	67.9	67.9	67.9	84	62.9	0	0	---	0.00	30.027 
23:30	67.9	67.9	67.9	84	62.9	0	0	---	0.00	30.026 
23:35	67.8	67.8	67.8	84	62.8	0	0	---	0.00	30.026 
23:40	67.8	67.8	67.8	84	62.8	0	0	---	0.00	30.026 
23:45	67.6	67.6	67.6	84	62.6	0	0	---	0.00	30.024 
23:50	67.6	67.6	67.6	84	62.6	0	0	---	0.00	30.024 
23:55	67.4	67.4	67.4	85	62.7	0	0	---	0.00	30.024 

CoCoRaHS
IN-AL-39
A2 Web Hosting
Creative Commons License
GoDaddy
search engine by freefind advanced

loaded 2018-11-12 16:00:09 • last modified 2010-11-18 10:43:29
Privacy PolicyDisclaimer
• wx.awcolley.com is powered by PmWiki v.2002016 •
• all content (unless otherwise noted) © 2018 A W Colley